sensor_id;sensor_type;location;lat;lon;timestamp;P1;durP1;ratioP1;P2;durP2;ratioP2
13951;SDS011;39535;52.192;9.886;2022-08-05T00:02:06;4.60;;;3.80;;
13951;SDS011;39535;52.192;9.886;2022-08-05T00:04:32;5.30;;;2.77;;
13951;SDS011;39535;52.192;9.886;2022-08-05T00:06:59;5.30;;;3.13;;
13951;SDS011;39535;52.192;9.886;2022-08-05T00:09:26;2.83;;;2.60;;
13951;SDS011;39535;52.192;9.886;2022-08-05T00:11:52;3.20;;;2.90;;
13951;SDS011;39535;52.192;9.886;2022-08-05T00:14:18;3.20;;;2.97;;
13951;SDS011;39535;52.192;9.886;2022-08-05T00:16:45;2.80;;;2.60;;
13951;SDS011;39535;52.192;9.886;2022-08-05T00:19:13;4.40;;;2.90;;
13951;SDS011;39535;52.192;9.886;2022-08-05T00:21:39;6.93;;;3.77;;
13951;SDS011;39535;52.192;9.886;2022-08-05T00:24:06;6.03;;;3.40;;
13951;SDS011;39535;52.192;9.886;2022-08-05T00:26:32;4.40;;;3.50;;
13951;SDS011;39535;52.192;9.886;2022-08-05T00:28:59;5.40;;;3.67;;
13951;SDS011;39535;52.192;9.886;2022-08-05T00:31:25;4.87;;;3.90;;
13951;SDS011;39535;52.192;9.886;2022-08-05T00:33:52;4.77;;;4.13;;
13951;SDS011;39535;52.192;9.886;2022-08-05T00:36:19;5.37;;;3.67;;
13951;SDS011;39535;52.192;9.886;2022-08-05T00:38:48;4.30;;;3.90;;
13951;SDS011;39535;52.192;9.886;2022-08-05T00:41:25;4.87;;;3.90;;
13951;SDS011;39535;52.192;9.886;2022-08-05T00:43:52;4.80;;;4.37;;
13951;SDS011;39535;52.192;9.886;2022-08-05T00:46:18;5.57;;;4.20;;
13951;SDS011;39535;52.192;9.886;2022-08-05T00:48:45;5.10;;;4.60;;
13951;SDS011;39535;52.192;9.886;2022-08-05T00:51:11;4.50;;;4.10;;
13951;SDS011;39535;52.192;9.886;2022-08-05T00:53:40;6.40;;;5.80;;
13951;SDS011;39535;52.192;9.886;2022-08-05T00:56:07;8.63;;;6.83;;
13951;SDS011;39535;52.192;9.886;2022-08-05T00:58:33;8.60;;;6.97;;
13951;SDS011;39535;52.192;9.886;2022-08-05T01:01:00;6.83;;;6.10;;
13951;SDS011;39535;52.192;9.886;2022-08-05T01:03:26;7.87;;;7.00;;
13951;SDS011;39535;52.192;9.886;2022-08-05T01:05:54;7.20;;;6.20;;
13951;SDS011;39535;52.192;9.886;2022-08-05T01:08:20;8.77;;;6.50;;
13951;SDS011;39535;52.192;9.886;2022-08-05T01:10:50;14.57;;;7.30;;
13951;SDS011;39535;52.192;9.886;2022-08-05T01:13:20;13.53;;;8.33;;
13951;SDS011;39535;52.192;9.886;2022-08-05T01:15:52;10.43;;;8.67;;
13951;SDS011;39535;52.192;9.886;2022-08-05T01:18:24;9.00;;;7.97;;
13951;SDS011;39535;52.192;9.886;2022-08-05T01:20:59;10.67;;;9.27;;
13951;SDS011;39535;52.192;9.886;2022-08-05T01:23:37;8.67;;;7.60;;
13951;SDS011;39535;52.192;9.886;2022-08-05T01:26:16;9.87;;;8.57;;
13951;SDS011;39535;52.192;9.886;2022-08-05T01:28:55;9.77;;;7.97;;
13951;SDS011;39535;52.192;9.886;2022-08-05T01:31:24;15.07;;;9.27;;
13951;SDS011;39535;52.192;9.886;2022-08-05T01:33:55;11.07;;;8.80;;
13951;SDS011;39535;52.192;9.886;2022-08-05T01:36:28;14.70;;;9.43;;
13951;SDS011;39535;52.192;9.886;2022-08-05T01:38:57;12.50;;;9.93;;
13951;SDS011;39535;52.192;9.886;2022-08-05T01:41:25;10.53;;;9.33;;
13951;SDS011;39535;52.192;9.886;2022-08-05T01:43:55;12.53;;;9.57;;
13951;SDS011;39535;52.192;9.886;2022-08-05T01:46:22;10.87;;;9.00;;
13951;SDS011;39535;52.192;9.886;2022-08-05T01:48:51;11.97;;;9.80;;
13951;SDS011;39535;52.192;9.886;2022-08-05T01:51:20;11.33;;;10.33;;
13951;SDS011;39535;52.192;9.886;2022-08-05T01:53:48;12.83;;;10.37;;
13951;SDS011;39535;52.192;9.886;2022-08-05T01:56:17;12.63;;;11.43;;
13951;SDS011;39535;52.192;9.886;2022-08-05T01:58:47;14.53;;;12.03;;
13951;SDS011;39535;52.192;9.886;2022-08-05T02:01:17;12.43;;;11.10;;
13951;SDS011;39535;52.192;9.886;2022-08-05T02:03:46;14.57;;;12.43;;
13951;SDS011;39535;52.192;9.886;2022-08-05T02:06:16;19.93;;;12.57;;
13951;SDS011;39535;52.192;9.886;2022-08-05T02:08:43;16.70;;;12.03;;
13951;SDS011;39535;52.192;9.886;2022-08-05T02:11:10;20.13;;;13.40;;
13951;SDS011;39535;52.192;9.886;2022-08-05T02:13:40;16.83;;;13.20;;
13951;SDS011;39535;52.192;9.886;2022-08-05T02:16:13;17.53;;;14.23;;
13951;SDS011;39535;52.192;9.886;2022-08-05T02:18:46;23.53;;;14.73;;
13951;SDS011;39535;52.192;9.886;2022-08-05T02:21:16;15.97;;;13.90;;
13951;SDS011;39535;52.192;9.886;2022-08-05T02:23:45;25.07;;;15.33;;
13951;SDS011;39535;52.192;9.886;2022-08-05T02:26:15;20.07;;;13.67;;
13951;SDS011;39535;52.192;9.886;2022-08-05T02:28:47;15.83;;;13.23;;
13951;SDS011;39535;52.192;9.886;2022-08-05T02:31:18;13.47;;;12.13;;
13951;SDS011;39535;52.192;9.886;2022-08-05T02:33:52;16.83;;;12.03;;
13951;SDS011;39535;52.192;9.886;2022-08-05T02:36:22;19.17;;;14.00;;
13951;SDS011;39535;52.192;9.886;2022-08-05T02:38:49;15.80;;;12.37;;
13951;SDS011;39535;52.192;9.886;2022-08-05T02:41:18;15.20;;;11.10;;
13951;SDS011;39535;52.192;9.886;2022-08-05T02:43:47;16.00;;;12.33;;
13951;SDS011;39535;52.192;9.886;2022-08-05T02:46:15;21.37;;;13.53;;
13951;SDS011;39535;52.192;9.886;2022-08-05T02:48:43;19.80;;;13.47;;
13951;SDS011;39535;52.192;9.886;2022-08-05T02:51:13;18.80;;;13.40;;
13951;SDS011;39535;52.192;9.886;2022-08-05T02:53:40;20.07;;;12.13;;
13951;SDS011;39535;52.192;9.886;2022-08-05T02:56:08;15.20;;;10.93;;
13951;SDS011;39535;52.192;9.886;2022-08-05T02:58:38;14.77;;;12.50;;
13951;SDS011;39535;52.192;9.886;2022-08-05T03:01:06;15.23;;;12.33;;
13951;SDS011;39535;52.192;9.886;2022-08-05T03:03:36;12.77;;;10.27;;
13951;SDS011;39535;52.192;9.886;2022-08-05T03:06:05;14.83;;;11.97;;
13951;SDS011;39535;52.192;9.886;2022-08-05T03:08:34;12.80;;;10.97;;
13951;SDS011;39535;52.192;9.886;2022-08-05T03:11:01;14.37;;;10.97;;
13951;SDS011;39535;52.192;9.886;2022-08-05T03:13:28;14.90;;;11.20;;
13951;SDS011;39535;52.192;9.886;2022-08-05T03:15:54;12.17;;;10.90;;
13951;SDS011;39535;52.192;9.886;2022-08-05T03:18:20;13.23;;;11.23;;
13951;SDS011;39535;52.192;9.886;2022-08-05T03:20:47;13.37;;;11.97;;
13951;SDS011;39535;52.192;9.886;2022-08-05T03:23:13;14.00;;;12.47;;
13951;SDS011;39535;52.192;9.886;2022-08-05T03:25:41;15.03;;;12.17;;
13951;SDS011;39535;52.192;9.886;2022-08-05T03:28:08;11.97;;;10.80;;
13951;SDS011;39535;52.192;9.886;2022-08-05T03:30:36;12.00;;;10.87;;
13951;SDS011;39535;52.192;9.886;2022-08-05T03:33:03;11.47;;;10.37;;
13951;SDS011;39535;52.192;9.886;2022-08-05T03:35:31;14.33;;;10.90;;
13951;SDS011;39535;52.192;9.886;2022-08-05T03:37:58;12.43;;;11.13;;
13951;SDS011;39535;52.192;9.886;2022-08-05T03:40:25;10.97;;;9.87;;
13951;SDS011;39535;52.192;9.886;2022-08-05T03:42:53;11.97;;;10.07;;
13951;SDS011;39535;52.192;9.886;2022-08-05T03:45:19;9.33;;;8.10;;
13951;SDS011;39535;52.192;9.886;2022-08-05T03:47:46;11.37;;;8.83;;
13951;SDS011;39535;52.192;9.886;2022-08-05T03:50:12;9.77;;;8.20;;
13951;SDS011;39535;52.192;9.886;2022-08-05T03:52:41;9.87;;;8.90;;
13951;SDS011;39535;52.192;9.886;2022-08-05T03:55:14;11.23;;;9.53;;
13951;SDS011;39535;52.192;9.886;2022-08-05T03:57:45;10.60;;;9.60;;
13951;SDS011;39535;52.192;9.886;2022-08-05T04:00:17;10.80;;;8.37;;
13951;SDS011;39535;52.192;9.886;2022-08-05T04:02:47;9.70;;;8.67;;
13951;SDS011;39535;52.192;9.886;2022-08-05T04:05:16;8.90;;;8.10;;
13951;SDS011;39535;52.192;9.886;2022-08-05T04:07:43;9.70;;;8.73;;
13951;SDS011;39535;52.192;9.886;2022-08-05T04:10:10;14.23;;;9.40;;
13951;SDS011;39535;52.192;9.886;2022-08-05T04:12:37;9.77;;;8.87;;
13951;SDS011;39535;52.192;9.886;2022-08-05T04:15:04;9.23;;;8.33;;
13951;SDS011;39535;52.192;9.886;2022-08-05T04:17:33;9.73;;;8.77;;
13951;SDS011;39535;52.192;9.886;2022-08-05T04:20:00;11.07;;;9.77;;
13951;SDS011;39535;52.192;9.886;2022-08-05T04:22:26;9.27;;;8.43;;
13951;SDS011;39535;52.192;9.886;2022-08-05T04:24:53;8.50;;;7.60;;
13951;SDS011;39535;52.192;9.886;2022-08-05T04:27:19;11.03;;;9.93;;
13951;SDS011;39535;52.192;9.886;2022-08-05T04:29:46;9.40;;;8.57;;
13951;SDS011;39535;52.192;9.886;2022-08-05T04:32:12;9.70;;;8.70;;
13951;SDS011;39535;52.192;9.886;2022-08-05T04:34:40;10.53;;;9.60;;
13951;SDS011;39535;52.192;9.886;2022-08-05T04:37:06;16.63;;;11.10;;
13951;SDS011;39535;52.192;9.886;2022-08-05T04:39:33;11.80;;;10.60;;
13951;SDS011;39535;52.192;9.886;2022-08-05T04:41:59;14.37;;;12.77;;
13951;SDS011;39535;52.192;9.886;2022-08-05T04:44:26;15.47;;;14.00;;
13951;SDS011;39535;52.192;9.886;2022-08-05T04:46:52;16.33;;;14.60;;
13951;SDS011;39535;52.192;9.886;2022-08-05T04:49:18;19.77;;;14.23;;
13951;SDS011;39535;52.192;9.886;2022-08-05T04:51:46;17.30;;;15.40;;
13951;SDS011;39535;52.192;9.886;2022-08-05T04:54:13;20.17;;;16.30;;
13951;SDS011;39535;52.192;9.886;2022-08-05T04:56:39;17.30;;;15.60;;
13951;SDS011;39535;52.192;9.886;2022-08-05T04:59:06;22.17;;;16.63;;
13951;SDS011;39535;52.192;9.886;2022-08-05T05:01:32;21.53;;;17.60;;
13951;SDS011;39535;52.192;9.886;2022-08-05T05:03:58;22.70;;;17.33;;
13951;SDS011;39535;52.192;9.886;2022-08-05T05:06:25;27.37;;;19.33;;
13951;SDS011;39535;52.192;9.886;2022-08-05T05:08:53;19.10;;;17.10;;
13951;SDS011;39535;52.192;9.886;2022-08-05T05:11:19;21.50;;;17.77;;
13951;SDS011;39535;52.192;9.886;2022-08-05T05:13:46;17.73;;;15.33;;
13951;SDS011;39535;52.192;9.886;2022-08-05T05:16:12;18.07;;;14.77;;
13951;SDS011;39535;52.192;9.886;2022-08-05T05:18:40;20.97;;;14.53;;
13951;SDS011;39535;52.192;9.886;2022-08-05T05:21:07;21.03;;;15.17;;
13951;SDS011;39535;52.192;9.886;2022-08-05T05:23:34;20.30;;;15.43;;
13951;SDS011;39535;52.192;9.886;2022-08-05T05:26:01;21.00;;;15.40;;
13951;SDS011;39535;52.192;9.886;2022-08-05T05:28:28;19.90;;;16.13;;
13951;SDS011;39535;52.192;9.886;2022-08-05T05:30:54;23.50;;;15.63;;
13951;SDS011;39535;52.192;9.886;2022-08-05T05:33:21;15.53;;;13.23;;
13951;SDS011;39535;52.192;9.886;2022-08-05T05:35:48;19.67;;;15.17;;
13951;SDS011;39535;52.192;9.886;2022-08-05T05:38:14;20.13;;;14.73;;
13951;SDS011;39535;52.192;9.886;2022-08-05T05:40:41;21.97;;;15.00;;
13951;SDS011;39535;52.192;9.886;2022-08-05T05:43:10;18.80;;;16.20;;
13951;SDS011;39535;52.192;9.886;2022-08-05T05:45:36;17.60;;;14.87;;
13951;SDS011;39535;52.192;9.886;2022-08-05T05:48:03;16.20;;;14.13;;
13951;SDS011;39535;52.192;9.886;2022-08-05T05:50:31;23.80;;;15.53;;
13951;SDS011;39535;52.192;9.886;2022-08-05T05:52:58;19.03;;;15.20;;
13951;SDS011;39535;52.192;9.886;2022-08-05T05:55:25;20.83;;;15.57;;
13951;SDS011;39535;52.192;9.886;2022-08-05T05:57:51;21.23;;;15.60;;
13951;SDS011;39535;52.192;9.886;2022-08-05T06:00:19;20.30;;;17.33;;
13951;SDS011;39535;52.192;9.886;2022-08-05T06:02:47;24.27;;;17.53;;
13951;SDS011;39535;52.192;9.886;2022-08-05T06:05:14;24.67;;;18.10;;
13951;SDS011;39535;52.192;9.886;2022-08-05T06:07:41;22.67;;;17.87;;
13951;SDS011;39535;52.192;9.886;2022-08-05T06:10:08;25.90;;;17.77;;
13951;SDS011;39535;52.192;9.886;2022-08-05T06:12:36;23.70;;;18.67;;
13951;SDS011;39535;52.192;9.886;2022-08-05T06:15:04;27.40;;;19.73;;
13951;SDS011;39535;52.192;9.886;2022-08-05T06:17:34;25.33;;;20.47;;
13951;SDS011;39535;52.192;9.886;2022-08-05T06:20:00;26.27;;;20.93;;
13951;SDS011;39535;52.192;9.886;2022-08-05T06:22:27;30.37;;;20.17;;
13951;SDS011;39535;52.192;9.886;2022-08-05T06:24:55;25.03;;;20.33;;
13951;SDS011;39535;52.192;9.886;2022-08-05T06:27:22;29.27;;;20.27;;
13951;SDS011;39535;52.192;9.886;2022-08-05T06:29:48;35.20;;;22.33;;
13951;SDS011;39535;52.192;9.886;2022-08-05T06:32:15;28.83;;;21.30;;
13951;SDS011;39535;52.192;9.886;2022-08-05T06:34:42;28.50;;;20.23;;
13951;SDS011;39535;52.192;9.886;2022-08-05T06:37:09;22.70;;;19.30;;
13951;SDS011;39535;52.192;9.886;2022-08-05T06:39:35;18.27;;;16.47;;
13951;SDS011;39535;52.192;9.886;2022-08-05T06:42:03;18.00;;;16.20;;
13951;SDS011;39535;52.192;9.886;2022-08-05T06:44:30;15.77;;;14.33;;
13951;SDS011;39535;52.192;9.886;2022-08-05T06:46:56;15.13;;;13.70;;
13951;SDS011;39535;52.192;9.886;2022-08-05T06:49:23;15.77;;;14.27;;
13951;SDS011;39535;52.192;9.886;2022-08-05T06:51:51;20.37;;;14.53;;
13951;SDS011;39535;52.192;9.886;2022-08-05T06:54:18;14.40;;;12.97;;
13951;SDS011;39535;52.192;9.886;2022-08-05T06:56:44;14.30;;;13.07;;
13951;SDS011;39535;52.192;9.886;2022-08-05T06:59:11;15.00;;;13.47;;
13951;SDS011;39535;52.192;9.886;2022-08-05T07:05:04;15.20;;;13.40;;
13951;SDS011;39535;52.192;9.886;2022-08-05T07:07:53;15.27;;;13.90;;
13951;SDS011;39535;52.192;9.886;2022-08-05T07:10:20;13.40;;;12.30;;
13951;SDS011;39535;52.192;9.886;2022-08-05T07:12:50;11.93;;;10.93;;
13951;SDS011;39535;52.192;9.886;2022-08-05T07:15:34;10.40;;;9.60;;
13951;SDS011;39535;52.192;9.886;2022-08-05T07:18:18;10.40;;;9.67;;
13951;SDS011;39535;52.192;9.886;2022-08-05T07:20:44;10.73;;;9.80;;
13951;SDS011;39535;52.192;9.886;2022-08-05T07:23:12;10.87;;;9.90;;
13951;SDS011;39535;52.192;9.886;2022-08-05T07:25:39;8.77;;;8.13;;
13951;SDS011;39535;52.192;9.886;2022-08-05T07:28:05;9.20;;;8.27;;
13951;SDS011;39535;52.192;9.886;2022-08-05T07:30:32;10.03;;;9.13;;
13951;SDS011;39535;52.192;9.886;2022-08-05T07:33:01;8.57;;;7.77;;
13951;SDS011;39535;52.192;9.886;2022-08-05T07:35:28;8.63;;;8.03;;
13951;SDS011;39535;52.192;9.886;2022-08-05T07:37:54;9.87;;;9.00;;
13951;SDS011;39535;52.192;9.886;2022-08-05T07:40:22;9.70;;;8.90;;
13951;SDS011;39535;52.192;9.886;2022-08-05T07:42:49;10.40;;;9.60;;
13951;SDS011;39535;52.192;9.886;2022-08-05T07:45:15;9.80;;;8.80;;
13951;SDS011;39535;52.192;9.886;2022-08-05T07:47:42;9.13;;;8.43;;
13951;SDS011;39535;52.192;9.886;2022-08-05T07:50:08;8.60;;;8.00;;
13951;SDS011;39535;52.192;9.886;2022-08-05T07:52:37;10.83;;;8.80;;
13951;SDS011;39535;52.192;9.886;2022-08-05T07:55:04;10.53;;;9.63;;
13951;SDS011;39535;52.192;9.886;2022-08-05T07:57:32;10.50;;;9.53;;
13951;SDS011;39535;52.192;9.886;2022-08-05T07:59:58;10.13;;;9.33;;
13951;SDS011;39535;52.192;9.886;2022-08-05T08:02:25;8.07;;;7.40;;
13951;SDS011;39535;52.192;9.886;2022-08-05T08:04:53;8.73;;;8.03;;
13951;SDS011;39535;52.192;9.886;2022-08-05T08:07:21;8.57;;;7.67;;
13951;SDS011;39535;52.192;9.886;2022-08-05T08:09:48;8.80;;;8.13;;
13951;SDS011;39535;52.192;9.886;2022-08-05T08:12:15;8.30;;;7.60;;
13951;SDS011;39535;52.192;9.886;2022-08-05T08:14:43;9.30;;;8.50;;
13951;SDS011;39535;52.192;9.886;2022-08-05T08:17:09;8.77;;;8.07;;
13951;SDS011;39535;52.192;9.886;2022-08-05T08:19:36;8.70;;;7.93;;
13951;SDS011;39535;52.192;9.886;2022-08-05T08:22:03;8.23;;;7.53;;
13951;SDS011;39535;52.192;9.886;2022-08-05T08:24:30;8.70;;;7.90;;
13951;SDS011;39535;52.192;9.886;2022-08-05T08:26:57;10.03;;;9.23;;
13951;SDS011;39535;52.192;9.886;2022-08-05T08:29:23;10.03;;;9.13;;
13951;SDS011;39535;52.192;9.886;2022-08-05T08:31:51;9.70;;;9.00;;
13951;SDS011;39535;52.192;9.886;2022-08-05T08:34:18;9.77;;;8.97;;
13951;SDS011;39535;52.192;9.886;2022-08-05T08:36:46;9.07;;;8.37;;
13951;SDS011;39535;52.192;9.886;2022-08-05T08:39:13;10.53;;;9.83;;
13951;SDS011;39535;52.192;9.886;2022-08-05T08:41:41;10.20;;;9.40;;
13951;SDS011;39535;52.192;9.886;2022-08-05T08:44:09;12.33;;;11.40;;
13951;SDS011;39535;52.192;9.886;2022-08-05T08:46:37;13.17;;;12.03;;
13951;SDS011;39535;52.192;9.886;2022-08-05T08:49:04;13.03;;;12.10;;
13951;SDS011;39535;52.192;9.886;2022-08-05T08:51:33;12.97;;;12.00;;
13951;SDS011;39535;52.192;9.886;2022-08-05T08:54:00;12.53;;;11.43;;
13951;SDS011;39535;52.192;9.886;2022-08-05T08:56:27;10.73;;;9.90;;
13951;SDS011;39535;52.192;9.886;2022-08-05T08:58:54;9.70;;;8.83;;
13951;SDS011;39535;52.192;9.886;2022-08-05T09:01:23;9.33;;;8.53;;
13951;SDS011;39535;52.192;9.886;2022-08-05T09:03:50;9.30;;;8.37;;
13951;SDS011;39535;52.192;9.886;2022-08-05T09:06:19;8.47;;;7.67;;
13951;SDS011;39535;52.192;9.886;2022-08-05T09:08:46;8.43;;;7.73;;
13951;SDS011;39535;52.192;9.886;2022-08-05T09:11:15;8.77;;;7.97;;
13951;SDS011;39535;52.192;9.886;2022-08-05T09:13:46;9.50;;;8.57;;
13951;SDS011;39535;52.192;9.886;2022-08-05T09:16:12;9.57;;;8.80;;
13951;SDS011;39535;52.192;9.886;2022-08-05T09:18:39;9.53;;;8.60;;
13951;SDS011;39535;52.192;9.886;2022-08-05T09:21:08;9.77;;;8.83;;
13951;SDS011;39535;52.192;9.886;2022-08-05T09:23:36;9.37;;;8.60;;
13951;SDS011;39535;52.192;9.886;2022-08-05T09:26:06;9.83;;;8.60;;
13951;SDS011;39535;52.192;9.886;2022-08-05T09:28:34;9.40;;;8.60;;
13951;SDS011;39535;52.192;9.886;2022-08-05T09:31:03;12.13;;;11.20;;
13951;SDS011;39535;52.192;9.886;2022-08-05T09:33:45;13.13;;;12.03;;
13951;SDS011;39535;52.192;9.886;2022-08-05T09:36:12;14.07;;;12.77;;
13951;SDS011;39535;52.192;9.886;2022-08-05T09:38:41;12.60;;;11.47;;
13951;SDS011;39535;52.192;9.886;2022-08-05T09:41:20;12.07;;;11.07;;
13951;SDS011;39535;52.192;9.886;2022-08-05T09:43:47;13.10;;;12.00;;
13951;SDS011;39535;52.192;9.886;2022-08-05T09:46:23;14.43;;;13.20;;
13951;SDS011;39535;52.192;9.886;2022-08-05T09:48:51;16.37;;;14.93;;
13951;SDS011;39535;52.192;9.886;2022-08-05T09:51:27;16.77;;;15.27;;
13951;SDS011;39535;52.192;9.886;2022-08-05T09:53:57;15.07;;;13.80;;
13951;SDS011;39535;52.192;9.886;2022-08-05T09:56:25;13.47;;;12.43;;
13951;SDS011;39535;52.192;9.886;2022-08-05T09:58:56;13.03;;;12.03;;
13951;SDS011;39535;52.192;9.886;2022-08-05T10:01:23;13.87;;;12.80;;
13951;SDS011;39535;52.192;9.886;2022-08-05T10:03:53;14.77;;;13.67;;
13951;SDS011;39535;52.192;9.886;2022-08-05T10:06:23;13.60;;;12.53;;
13951;SDS011;39535;52.192;9.886;2022-08-05T10:08:50;15.03;;;13.77;;
13951;SDS011;39535;52.192;9.886;2022-08-05T10:11:18;14.13;;;13.07;;
13951;SDS011;39535;52.192;9.886;2022-08-05T10:13:44;13.47;;;12.37;;
13951;SDS011;39535;52.192;9.886;2022-08-05T10:16:27;13.43;;;12.43;;
13951;SDS011;39535;52.192;9.886;2022-08-05T10:18:55;15.23;;;14.23;;
13951;SDS011;39535;52.192;9.886;2022-08-05T10:21:22;14.53;;;13.53;;
13951;SDS011;39535;52.192;9.886;2022-08-05T10:23:48;14.97;;;13.90;;
13951;SDS011;39535;52.192;9.886;2022-08-05T10:26:15;21.00;;;19.50;;
13951;SDS011;39535;52.192;9.886;2022-08-05T10:28:43;19.67;;;18.37;;
13951;SDS011;39535;52.192;9.886;2022-08-05T10:31:11;17.53;;;16.20;;
13951;SDS011;39535;52.192;9.886;2022-08-05T10:33:38;18.73;;;17.27;;
13951;SDS011;39535;52.192;9.886;2022-08-05T10:36:06;15.53;;;14.43;;
13951;SDS011;39535;52.192;9.886;2022-08-05T10:38:33;13.40;;;12.40;;
13951;SDS011;39535;52.192;9.886;2022-08-05T10:41:01;14.47;;;13.30;;
13951;SDS011;39535;52.192;9.886;2022-08-05T10:43:35;13.90;;;12.90;;
13951;SDS011;39535;52.192;9.886;2022-08-05T10:46:10;12.37;;;11.20;;
13951;SDS011;39535;52.192;9.886;2022-08-05T10:48:38;12.27;;;11.27;;
13951;SDS011;39535;52.192;9.886;2022-08-05T10:51:07;14.83;;;13.57;;
13951;SDS011;39535;52.192;9.886;2022-08-05T10:53:36;14.07;;;13.10;;
13951;SDS011;39535;52.192;9.886;2022-08-05T10:56:04;9.57;;;8.87;;
13951;SDS011;39535;52.192;9.886;2022-08-05T10:58:33;8.47;;;7.67;;
13951;SDS011;39535;52.192;9.886;2022-08-05T11:01:02;7.33;;;6.70;;
13951;SDS011;39535;52.192;9.886;2022-08-05T11:03:31;5.83;;;5.43;;
13951;SDS011;39535;52.192;9.886;2022-08-05T11:06:01;4.10;;;3.80;;
13951;SDS011;39535;52.192;9.886;2022-08-05T11:08:30;5.03;;;4.37;;
13951;SDS011;39535;52.192;9.886;2022-08-05T11:11:07;4.17;;;3.63;;
13951;SDS011;39535;52.192;9.886;2022-08-05T11:13:57;3.77;;;3.17;;
13951;SDS011;39535;52.192;9.886;2022-08-05T11:16:25;4.17;;;3.70;;
13951;SDS011;39535;52.192;9.886;2022-08-05T11:21:53;3.93;;;3.60;;
13951;SDS011;39535;52.192;9.886;2022-08-05T11:24:20;4.47;;;4.07;;
13951;SDS011;39535;52.192;9.886;2022-08-05T11:26:48;5.27;;;3.80;;
13951;SDS011;39535;52.192;9.886;2022-08-05T11:34:50;5.70;;;5.20;;
13951;SDS011;39535;52.192;9.886;2022-08-05T11:40:08;5.27;;;4.77;;
13951;SDS011;39535;52.192;9.886;2022-08-05T11:42:35;5.27;;;4.87;;
13951;SDS011;39535;52.192;9.886;2022-08-05T11:45:10;5.07;;;4.73;;
13951;SDS011;39535;52.192;9.886;2022-08-05T11:47:37;5.60;;;4.60;;
13951;SDS011;39535;52.192;9.886;2022-08-05T11:50:05;5.17;;;4.83;;
13951;SDS011;39535;52.192;9.886;2022-08-05T11:52:33;5.10;;;4.60;;
13951;SDS011;39535;52.192;9.886;2022-08-05T11:54:59;5.03;;;4.67;;
13951;SDS011;39535;52.192;9.886;2022-08-05T11:57:29;4.90;;;4.47;;
13951;SDS011;39535;52.192;9.886;2022-08-05T11:59:56;5.03;;;4.63;;
13951;SDS011;39535;52.192;9.886;2022-08-05T12:02:23;5.37;;;4.87;;
13951;SDS011;39535;52.192;9.886;2022-08-05T12:04:51;5.17;;;3.87;;
13951;SDS011;39535;52.192;9.886;2022-08-05T12:07:19;4.90;;;4.47;;
13951;SDS011;39535;52.192;9.886;2022-08-05T12:09:46;5.03;;;4.40;;
13951;SDS011;39535;52.192;9.886;2022-08-05T12:12:19;5.40;;;4.67;;
13951;SDS011;39535;52.192;9.886;2022-08-05T12:14:46;4.70;;;4.30;;
13951;SDS011;39535;52.192;9.886;2022-08-05T12:17:13;4.43;;;4.13;;
13951;SDS011;39535;52.192;9.886;2022-08-05T12:19:40;5.30;;;4.80;;
13951;SDS011;39535;52.192;9.886;2022-08-05T12:22:08;5.07;;;4.60;;
13951;SDS011;39535;52.192;9.886;2022-08-05T12:24:38;5.73;;;5.27;;
13951;SDS011;39535;52.192;9.886;2022-08-05T12:27:17;5.60;;;4.97;;
13951;SDS011;39535;52.192;9.886;2022-08-05T12:29:44;6.00;;;5.60;;
13951;SDS011;39535;52.192;9.886;2022-08-05T12:32:10;5.83;;;5.40;;
13951;SDS011;39535;52.192;9.886;2022-08-05T12:34:37;6.20;;;5.73;;
13951;SDS011;39535;52.192;9.886;2022-08-05T12:37:05;7.53;;;7.00;;
13951;SDS011;39535;52.192;9.886;2022-08-05T12:39:37;7.70;;;7.10;;
13951;SDS011;39535;52.192;9.886;2022-08-05T12:42:11;7.37;;;6.77;;
13951;SDS011;39535;52.192;9.886;2022-08-05T12:44:41;6.57;;;6.17;;
13951;SDS011;39535;52.192;9.886;2022-08-05T12:47:09;6.37;;;5.93;;
13951;SDS011;39535;52.192;9.886;2022-08-05T12:49:40;6.47;;;6.07;;
13951;SDS011;39535;52.192;9.886;2022-08-05T12:52:10;5.17;;;4.77;;
13951;SDS011;39535;52.192;9.886;2022-08-05T12:54:39;4.37;;;4.00;;
13951;SDS011;39535;52.192;9.886;2022-08-05T12:57:07;4.30;;;4.10;;
13951;SDS011;39535;52.192;9.886;2022-08-05T12:59:42;4.00;;;3.60;;
13951;SDS011;39535;52.192;9.886;2022-08-05T13:02:10;3.73;;;3.50;;
13951;SDS011;39535;52.192;9.886;2022-08-05T13:04:38;3.23;;;3.03;;
13951;SDS011;39535;52.192;9.886;2022-08-05T13:07:06;3.57;;;3.27;;
13951;SDS011;39535;52.192;9.886;2022-08-05T13:09:36;3.93;;;3.63;;
13951;SDS011;39535;52.192;9.886;2022-08-05T13:12:06;4.20;;;3.90;;
13951;SDS011;39535;52.192;9.886;2022-08-05T13:14:35;4.40;;;4.00;;
13951;SDS011;39535;52.192;9.886;2022-08-05T13:17:06;4.30;;;4.00;;
13951;SDS011;39535;52.192;9.886;2022-08-05T13:19:34;4.40;;;4.10;;
13951;SDS011;39535;52.192;9.886;2022-08-05T13:22:02;4.77;;;4.47;;
13951;SDS011;39535;52.192;9.886;2022-08-05T13:24:28;4.60;;;4.27;;
13951;SDS011;39535;52.192;9.886;2022-08-05T13:26:54;4.07;;;3.77;;
13951;SDS011;39535;52.192;9.886;2022-08-05T13:29:22;5.33;;;4.87;;
13951;SDS011;39535;52.192;9.886;2022-08-05T13:31:49;5.43;;;5.10;;
13951;SDS011;39535;52.192;9.886;2022-08-05T13:34:15;5.17;;;4.77;;
13951;SDS011;39535;52.192;9.886;2022-08-05T13:36:42;4.60;;;4.17;;
13951;SDS011;39535;52.192;9.886;2022-08-05T13:39:08;5.40;;;5.10;;
13951;SDS011;39535;52.192;9.886;2022-08-05T13:41:37;3.90;;;3.70;;
13951;SDS011;39535;52.192;9.886;2022-08-05T13:44:04;3.87;;;3.67;;
13951;SDS011;39535;52.192;9.886;2022-08-05T13:46:31;4.77;;;4.47;;
13951;SDS011;39535;52.192;9.886;2022-08-05T13:48:58;4.90;;;4.60;;
13951;SDS011;39535;52.192;9.886;2022-08-05T13:51:25;5.07;;;4.67;;
13951;SDS011;39535;52.192;9.886;2022-08-05T13:53:53;3.53;;;3.27;;
13951;SDS011;39535;52.192;9.886;2022-08-05T13:56:20;3.70;;;3.50;;
13951;SDS011;39535;52.192;9.886;2022-08-05T13:58:46;3.50;;;3.30;;
13951;SDS011;39535;52.192;9.886;2022-08-05T14:01:13;4.10;;;3.70;;
13951;SDS011;39535;52.192;9.886;2022-08-05T14:03:40;4.23;;;3.93;;
13951;SDS011;39535;52.192;9.886;2022-08-05T14:06:07;3.40;;;3.10;;
13951;SDS011;39535;52.192;9.886;2022-08-05T14:08:32;3.50;;;3.20;;
13951;SDS011;39535;52.192;9.886;2022-08-05T14:10:59;4.00;;;3.70;;
13951;SDS011;39535;52.192;9.886;2022-08-05T14:13:25;3.43;;;3.17;;
13951;SDS011;39535;52.192;9.886;2022-08-05T14:15:52;3.77;;;3.47;;
13951;SDS011;39535;52.192;9.886;2022-08-05T14:18:18;4.07;;;3.30;;
13951;SDS011;39535;52.192;9.886;2022-08-05T14:20:46;3.13;;;2.63;;
13951;SDS011;39535;52.192;9.886;2022-08-05T14:23:12;3.27;;;2.97;;
13951;SDS011;39535;52.192;9.886;2022-08-05T14:25:39;3.43;;;3.13;;
13951;SDS011;39535;52.192;9.886;2022-08-05T14:28:05;3.87;;;3.57;;
13951;SDS011;39535;52.192;9.886;2022-08-05T14:30:32;4.53;;;4.17;;
13951;SDS011;39535;52.192;9.886;2022-08-05T14:32:58;3.90;;;3.60;;
13951;SDS011;39535;52.192;9.886;2022-08-05T14:35:25;4.73;;;4.43;;
13951;SDS011;39535;52.192;9.886;2022-08-05T14:37:52;4.17;;;3.87;;
13951;SDS011;39535;52.192;9.886;2022-08-05T14:40:19;3.63;;;3.40;;
13951;SDS011;39535;52.192;9.886;2022-08-05T14:42:45;4.37;;;4.07;;
13951;SDS011;39535;52.192;9.886;2022-08-05T14:45:12;3.23;;;3.03;;
13951;SDS011;39535;52.192;9.886;2022-08-05T14:47:38;3.47;;;3.17;;
13951;SDS011;39535;52.192;9.886;2022-08-05T14:50:05;3.23;;;2.97;;
13951;SDS011;39535;52.192;9.886;2022-08-05T14:52:32;3.77;;;3.47;;
13951;SDS011;39535;52.192;9.886;2022-08-05T14:55:00;4.07;;;3.30;;
13951;SDS011;39535;52.192;9.886;2022-08-05T14:57:26;3.83;;;3.53;;